Time;durP1;ratioP1;P1;durP2;ratioP2;P2;SDS_P1;SDS_P2;PMS_P1;PMS_P2;Temp;Humidity;BMP_temperature;BMP_pressure;BME280_temperature;BME280_humidity;BME280_pressure;Samples;Min_cycle;Max_cycle;Signal;HPM_P1;HPM_P2
2023/06/02 00:02:08;;;;;;;;;;;;;;;9.99;78.67;98680.59;4878839;29;20303;-79
2023/06/02 00:04:38;;;;;;;;;;;;;;;9.97;79.03;98685.41;4859760;29;19992;-79
2023/06/02 00:07:07;;;;;;;;;;;;;;;9.94;79.21;98688.63;4859997;29;19984;-80
2023/06/02 00:09:38;;;;;;;;;;;;;;;9.88;79.15;98678.84;4859700;29;19928;-80
2023/06/02 00:12:10;;;;;;;;;;;;;;;9.82;79.21;98680.63;4858877;29;19935;-79
2023/06/02 00:14:42;;;;;;;;;;;;;;;9.75;79.24;98675.44;4859613;29;19950;-79
2023/06/02 00:17:19;;;;;;;;;;;;;;;9.70;79.49;98667.25;4859870;29;19964;-80
2023/06/02 00:19:47;;;;;;;;;;;;;;;9.67;79.65;98672.31;4858334;29;19931;-79
2023/06/02 00:22:15;;;;;;;;;;;;;;;9.64;79.86;98664.72;4858515;29;19944;-79
2023/06/02 00:24:42;;;;;;;;;;;;;;;9.63;79.90;98671.19;4859454;29;19935;-79
2023/06/02 00:27:09;;;;;;;;;;;;;;;9.69;79.63;98662.09;4859659;29;19928;-80
2023/06/02 00:29:36;;;;;;;;;;;;;;;9.73;79.50;98672.16;4862456;29;19928;-80
2023/06/02 00:32:07;;;;;;;;;;;;;;;9.77;79.26;98678.69;4879069;29;19934;-79
2023/06/02 00:34:34;;;;;;;;;;;;;;;9.81;78.41;98668.22;4877326;29;19927;-79
2023/06/02 00:37:01;;;;;;;;;;;;;;;9.81;78.39;98676.31;4878780;29;19927;-80
2023/06/02 00:39:28;;;;;;;;;;;;;;;9.77;78.29;98675.16;4878657;29;19935;-79
2023/06/02 00:41:55;;;;;;;;;;;;;;;9.74;78.18;98675.66;4877112;29;19928;-79
2023/06/02 00:44:22;;;;;;;;;;;;;;;9.77;77.92;98675.16;4861769;29;20308;-80
2023/06/02 00:46:50;;;;;;;;;;;;;;;9.75;77.75;98666.53;4878260;29;20454;-80
2023/06/02 00:49:17;;;;;;;;;;;;;;;9.69;77.95;98668.31;4877901;29;19932;-78
2023/06/02 00:51:45;;;;;;;;;;;;;;;9.59;77.91;98661.97;4877865;29;19975;-80
2023/06/02 00:54:13;;;;;;;;;;;;;;;9.50;78.33;98665.06;4877052;29;19961;-80
2023/06/02 00:56:42;;;;;;;;;;;;;;;9.50;78.27;98673.16;4877909;29;19975;-79
2023/06/02 00:59:10;;;;;;;;;;;;;;;9.50;78.00;98675.84;4878061;29;20545;-79
2023/06/02 01:01:38;;;;;;;;;;;;;;;9.55;77.69;98667.84;4876553;29;19943;-79
2023/06/02 01:04:05;;;;;;;;;;;;;;;9.53;77.66;98678.03;4877992;29;19928;-79
2023/06/02 01:06:36;;;;;;;;;;;;;;;9.51;77.96;98677.47;4876398;29;19931;-78
2023/06/02 01:09:04;;;;;;;;;;;;;;;9.48;77.83;98680.66;4877619;29;19927;-80
2023/06/02 01:11:31;;;;;;;;;;;;;;;9.47;77.77;98676.34;4876314;29;19927;-80
2023/06/02 01:13:58;;;;;;;;;;;;;;;9.44;77.62;98682.19;4877808;29;20454;-80
2023/06/02 01:16:28;;;;;;;;;;;;;;;9.47;77.76;98686.28;4876710;29;20026;-79
2023/06/02 01:18:55;;;;;;;;;;;;;;;9.52;77.55;98683.66;4876488;29;19928;-79
2023/06/02 01:21:23;;;;;;;;;;;;;;;9.55;77.39;98684.00;4877570;29;19935;-79
2023/06/02 01:23:51;;;;;;;;;;;;;;;9.57;77.14;98688.31;4876153;29;19927;-79
2023/06/02 01:26:18;;;;;;;;;;;;;;;9.64;77.01;98688.97;4877316;29;20398;-79
2023/06/02 01:28:45;;;;;;;;;;;;;;;9.73;76.68;98682.94;4877197;29;19959;-80
2023/06/02 01:31:16;;;;;;;;;;;;;;;9.86;76.52;98684.47;4877437;29;19934;-79
2023/06/02 01:33:43;;;;;;;;;;;;;;;9.96;76.23;98686.50;4879324;29;19928;-80
2023/06/02 01:36:10;;;;;;;;;;;;;;;10.03;75.90;98684.44;4882167;29;19928;-79
2023/06/02 01:38:38;;;;;;;;;;;;;;;10.05;75.75;98681.47;4883337;29;19932;-80
2023/06/02 01:41:07;;;;;;;;;;;;;;;10.10;75.67;98671.59;4882202;29;19927;-79
2023/06/02 01:43:34;;;;;;;;;;;;;;;10.18;75.31;98678.44;4866163;29;19983;-80
2023/06/02 01:46:01;;;;;;;;;;;;;;;10.27;75.20;98679.63;4883629;29;19963;-79
2023/06/02 01:48:29;;;;;;;;;;;;;;;10.33;74.96;98678.66;4882213;29;19958;-80
2023/06/02 01:50:56;;;;;;;;;;;;;;;10.39;74.83;98684.94;4883702;29;19928;-80
2023/06/02 01:53:26;;;;;;;;;;;;;;;10.43;74.57;98693.34;4883631;29;19927;-80
2023/06/02 01:55:54;;;;;;;;;;;;;;;10.47;74.77;98699.88;4867255;29;20350;-79
2023/06/02 01:58:21;;;;;;;;;;;;;;;10.57;74.70;98710.78;4882637;29;19935;-80
2023/06/02 02:00:50;;;;;;;;;;;;;;;10.61;74.56;98710.03;4867442;29;19992;-80
2023/06/02 02:03:17;;;;;;;;;;;;;;;10.70;74.31;98698.78;4879247;29;19932;-79
2023/06/02 02:05:44;;;;;;;;;;;;;;;10.69;74.49;98700.69;4864517;29;19927;-78
2023/06/02 02:08:12;;;;;;;;;;;;;;;10.72;74.47;98699.34;4864960;29;19934;-79
2023/06/02 02:10:39;;;;;;;;;;;;;;;10.85;74.21;98702.47;4864680;29;19928;-79
2023/06/02 02:13:06;;;;;;;;;;;;;;;10.88;74.09;98700.34;4864686;29;20035;-79
2023/06/02 02:15:33;;;;;;;;;;;;;;;10.92;73.89;98704.97;4864521;29;19934;-78
2023/06/02 02:18:00;;;;;;;;;;;;;;;11.00;73.83;98703.69;4864857;29;19935;-80
2023/06/02 02:20:47;;;;;;;;;;;;;;;11.06;73.71;98708.06;4850778;29;19928;-80
2023/06/02 02:23:14;;;;;;;;;;;;;;;11.11;73.66;98697.31;4876633;29;19928;-80
2023/06/02 02:25:44;;;;;;;;;;;;;;;11.15;73.97;98705.75;4882829;29;19931;-79
2023/06/02 02:28:11;;;;;;;;;;;;;;;11.17;73.97;98699.03;4866488;29;20363;-79
2023/06/02 02:30:38;;;;;;;;;;;;;;;11.23;74.03;98703.38;4882979;29;20056;-80
2023/06/02 02:33:05;;;;;;;;;;;;;;;11.30;73.90;98700.47;4882094;29;19935;-80
2023/06/02 02:35:32;;;;;;;;;;;;;;;11.37;73.68;98702.94;4881748;29;19956;-80
2023/06/02 02:38:01;;;;;;;;;;;;;;;11.34;73.45;98703.47;4881930;29;19934;-80
2023/06/02 02:40:29;;;;;;;;;;;;;;;11.30;73.62;98702.38;4883167;29;19927;-80
2023/06/02 02:42:56;;;;;;;;;;;;;;;11.32;73.57;98709.16;4881971;29;19965;-79
2023/06/02 02:45:26;;;;;;;;;;;;;;;11.36;73.53;98712.94;4880086;29;19999;-78
2023/06/02 02:47:54;;;;;;;;;;;;;;;11.41;73.46;98710.28;4878712;29;19927;-79
2023/06/02 02:50:21;;;;;;;;;;;;;;;11.42;73.25;98713.81;4879811;29;20401;-80
2023/06/02 02:52:50;;;;;;;;;;;;;;;11.40;73.49;98721.38;4878696;29;19955;-80
2023/06/02 02:55:17;;;;;;;;;;;;;;;11.44;73.44;98722.47;4878885;29;19939;-79
2023/06/02 02:57:44;;;;;;;;;;;;;;;11.39;73.74;98727.84;4878512;29;19931;-80
2023/06/02 03:00:13;;;;;;;;;;;;;;;11.33;74.00;98736.97;4878339;29;19928;-79
2023/06/02 03:02:42;;;;;;;;;;;;;;;11.26;74.54;98740.69;4859338;29;20418;-78
2023/06/02 03:05:10;;;;;;;;;;;;;;;11.25;74.64;98741.75;4859816;29;19950;-79
2023/06/02 03:07:40;;;;;;;;;;;;;;;11.28;74.62;98730.44;4844472;29;20039;-79
2023/06/02 03:10:13;;;;;;;;;;;;;;;11.37;74.61;98729.97;4859965;29;19934;-80
2023/06/02 03:12:45;;;;;;;;;;;;;;;11.43;74.49;98720.84;4859990;29;20352;-80
2023/06/02 03:15:12;;;;;;;;;;;;;;;11.47;74.51;98732.78;4861556;29;19931;-80
2023/06/02 03:17:41;;;;;;;;;;;;;;;11.52;74.85;98740.09;4859757;29;20012;-79
2023/06/02 03:20:15;;;;;;;;;;;;;;;11.53;74.71;98756.06;4877138;29;20395;-80
2023/06/02 03:22:49;;;;;;;;;;;;;;;11.35;75.14;98759.16;4878863;29;19971;-80
2023/06/02 03:25:20;;;;;;;;;;;;;;;11.11;75.28;98766.72;4879050;29;19927;-79
2023/06/02 03:27:50;;;;;;;;;;;;;;;10.90;75.21;98773.78;4877645;29;19927;-79
2023/06/02 03:30:17;;;;;;;;;;;;;;;10.78;75.85;98773.91;4877911;29;19966;-78
2023/06/02 03:32:45;;;;;;;;;;;;;;;10.71;76.61;98763.31;4878827;29;19960;-79
2023/06/02 03:35:13;;;;;;;;;;;;;;;10.67;76.68;98754.09;4877463;29;20403;-80
2023/06/02 03:37:41;;;;;;;;;;;;;;;10.69;76.98;98740.34;4877809;29;20413;-79
2023/06/02 03:40:09;;;;;;;;;;;;;;;10.74;77.43;98732.31;4876842;29;19931;-79
2023/06/02 03:42:38;;;;;;;;;;;;;;;10.79;77.74;98730.47;4875373;29;19979;-79
2023/06/02 03:45:08;;;;;;;;;;;;;;;10.91;77.93;98730.31;4869376;29;20486;-79
2023/06/02 03:47:40;;;;;;;;;;;;;;;11.11;78.04;98726.22;4878726;29;19959;-79
2023/06/02 03:50:11;;;;;;;;;;;;;;;11.20;77.84;98736.31;4876297;29;19977;-80
2023/06/02 03:52:39;;;;;;;;;;;;;;;11.36;77.77;98739.97;4532997;29;10000122;-79
2023/06/02 03:55:07;;;;;;;;;;;;;;;11.52;77.39;98740.94;4855360;29;19928;-81
2023/06/02 03:57:34;;;;;;;;;;;;;;;11.67;77.01;98735.66;4872787;29;20385;-79
2023/06/02 04:00:06;;;;;;;;;;;;;;;11.78;76.79;98731.16;4873132;29;19927;-80
2023/06/02 04:02:39;;;;;;;;;;;;;;;11.90;76.85;98744.50;4872349;29;19949;-80
2023/06/02 04:05:11;;;;;;;;;;;;;;;11.96;77.13;98734.56;4873257;29;19927;-80
2023/06/02 04:07:41;;;;;;;;;;;;;;;12.02;76.96;98734.31;4870624;29;19927;-79
2023/06/02 04:10:11;;;;;;;;;;;;;;;11.96;77.10;98731.84;4872230;29;20819;-79
2023/06/02 04:12:39;;;;;;;;;;;;;;;11.96;77.14;98721.84;4873812;29;19927;-79
2023/06/02 04:15:08;;;;;;;;;;;;;;;11.90;77.41;98728.28;4858028;29;19931;-79
2023/06/02 04:17:36;;;;;;;;;;;;;;;11.98;77.48;98722.41;4873389;29;19927;-78
2023/06/02 04:20:04;;;;;;;;;;;;;;;12.09;77.07;98721.38;4873544;29;20311;-79
2023/06/02 04:22:35;;;;;;;;;;;;;;;12.08;76.61;98724.34;4872749;29;19927;-78
2023/06/02 04:25:03;;;;;;;;;;;;;;;12.19;76.50;98717.91;4874511;29;20018;-80
2023/06/02 04:27:30;;;;;;;;;;;;;;;12.35;76.22;98718.81;4872541;29;20357;-80
2023/06/02 04:29:58;;;;;;;;;;;;;;;12.65;75.48;98714.63;4842745;29;19928;-81
2023/06/02 04:32:25;;;;;;;;;;;;;;;12.91;75.07;98712.78;4877550;29;19928;-79
2023/06/02 04:34:55;;;;;;;;;;;;;;;13.10;74.53;98718.56;4871083;29;19928;-79
2023/06/02 04:37:22;;;;;;;;;;;;;;;13.29;73.84;98713.44;4875330;29;20026;-80
2023/06/02 04:39:50;;;;;;;;;;;;;;;13.48;73.16;98709.13;4860446;29;19979;-79
2023/06/02 04:42:18;;;;;;;;;;;;;;;13.59;72.48;98710.75;4876287;29;20411;-80
2023/06/02 04:44:47;;;;;;;;;;;;;;;13.73;72.01;98702.91;4873222;29;20333;-79
2023/06/02 04:47:31;;;;;;;;;;;;;;;13.93;71.16;98706.69;4865587;29;20034;-79
2023/06/02 04:49:58;;;;;;;;;;;;;;;14.04;70.79;98695.53;4871092;29;19951;-79
2023/06/02 04:52:25;;;;;;;;;;;;;;;14.25;70.39;98696.28;4856823;29;19932;-80
2023/06/02 04:54:53;;;;;;;;;;;;;;;14.54;69.51;98692.16;4872323;29;19947;-81
2023/06/02 04:57:22;;;;;;;;;;;;;;;14.82;68.61;98694.19;4873049;29;19928;-79
2023/06/02 04:59:50;;;;;;;;;;;;;;;15.03;67.64;98699.50;4856094;29;20435;-80
2023/06/02 05:02:17;;;;;;;;;;;;;;;15.21;66.87;98695.31;4870922;29;20306;-79
2023/06/02 05:04:44;;;;;;;;;;;;;;;15.31;66.01;98701.47;4870220;29;20302;-80
2023/06/02 05:07:14;;;;;;;;;;;;;;;15.33;65.16;98698.50;4875098;29;20026;-78
2023/06/02 05:09:42;;;;;;;;;;;;;;;15.43;64.50;98705.78;4866748;29;20307;-79
2023/06/02 05:12:09;;;;;;;;;;;;;;;15.64;63.15;98703.69;4873678;29;19951;-79
2023/06/02 05:14:39;;;;;;;;;;;;;;;15.85;62.40;98698.91;4874082;29;19928;-80
2023/06/02 05:17:08;;;;;;;;;;;;;;;16.00;61.45;98696.88;4533011;29;10000684;-81
2023/06/02 05:19:42;;;;;;;;;;;;;;;16.15;60.87;98704.03;4861872;29;19938;-81
2023/06/02 05:22:12;;;;;;;;;;;;;;;15.89;60.48;98706.22;4860018;29;19928;-79
2023/06/02 05:24:39;;;;;;;;;;;;;;;15.65;60.69;98705.31;4853516;29;19936;-81
2023/06/02 05:27:07;;;;;;;;;;;;;;;15.49;61.16;98705.44;4872609;29;19971;-80
2023/06/02 05:29:34;;;;;;;;;;;;;;;15.68;60.82;98702.03;4854202;29;19927;-79
2023/06/02 05:32:01;;;;;;;;;;;;;;;15.93;59.39;98704.56;4870078;29;20419;-80
2023/06/02 05:34:31;;;;;;;;;;;;;;;15.85;58.55;98694.31;4864801;29;19928;-81
2023/06/02 05:37:00;;;;;;;;;;;;;;;15.81;58.11;98690.50;4838656;29;19996;-80
2023/06/02 05:39:28;;;;;;;;;;;;;;;15.93;57.50;98685.50;4857488;29;19928;-81
2023/06/02 05:41:58;;;;;;;;;;;;;;;15.93;56.55;98682.78;4869200;29;19928;-80
2023/06/02 05:44:25;;;;;;;;;;;;;;;16.33;56.39;98680.72;4850835;29;20579;-80
2023/06/02 05:46:56;;;;;;;;;;;;;;;16.79;55.62;98679.38;4868657;29;19928;-80
2023/06/02 05:49:24;;;;;;;;;;;;;;;16.90;55.30;98689.81;4874967;29;20344;-79
2023/06/02 05:51:51;;;;;;;;;;;;;;;17.10;54.57;98685.19;4874841;29;20018;-81
2023/06/02 05:54:19;;;;;;;;;;;;;;;17.16;53.59;98686.72;4858776;29;20292;-80
2023/06/02 05:56:46;;;;;;;;;;;;;;;16.98;53.81;98688.34;4860808;29;20357;-82
2023/06/02 05:59:13;;;;;;;;;;;;;;;16.91;54.21;98677.00;4858019;29;19928;-82
2023/06/02 06:01:40;;;;;;;;;;;;;;;16.88;54.90;98685.78;4856607;29;19928;-82
2023/06/02 06:04:08;;;;;;;;;;;;;;;17.00;54.89;98685.34;4857664;29;19935;-81
2023/06/02 06:06:37;;;;;;;;;;;;;;;17.01;54.94;98678.78;4856286;29;19981;-81
2023/06/02 06:09:05;;;;;;;;;;;;;;;16.89;54.48;98685.50;4857619;29;20023;-80
2023/06/02 06:11:33;;;;;;;;;;;;;;;16.83;54.56;98692.09;4856338;29;19928;-81
2023/06/02 06:14:05;;;;;;;;;;;;;;;16.95;54.28;98683.50;4856865;29;20312;-81
2023/06/02 06:16:32;;;;;;;;;;;;;;;16.96;54.32;98684.31;4854041;29;19928;-81
2023/06/02 06:19:02;;;;;;;;;;;;;;;17.02;53.96;98680.41;4858680;29;20349;-80
2023/06/02 06:21:32;;;;;;;;;;;;;;;16.93;54.17;98682.97;4860744;29;19928;-81
2023/06/02 06:23:59;;;;;;;;;;;;;;;16.99;53.78;98681.81;4860608;29;20585;-81
2023/06/02 06:26:26;;;;;;;;;;;;;;;17.10;52.86;98679.75;4861577;29;19943;-82
2023/06/02 06:28:53;;;;;;;;;;;;;;;17.17;51.99;98677.47;4861513;29;19984;-81
2023/06/02 06:31:23;;;;;;;;;;;;;;;17.41;51.52;98668.38;4861427;29;19982;-82
2023/06/02 06:33:50;;;;;;;;;;;;;;;17.66;50.43;98675.31;4863490;29;19947;-82
2023/06/02 06:36:17;;;;;;;;;;;;;;;17.41;50.50;98673.81;4871251;29;20014;-82
2023/06/02 06:38:44;;;;;;;;;;;;;;;17.39;51.11;98671.38;4849459;29;19927;-81
2023/06/02 06:41:11;;;;;;;;;;;;;;;17.51;51.52;98662.75;4863818;29;19928;-80
2023/06/02 06:43:39;;;;;;;;;;;;;;;17.50;51.67;98666.59;4866629;29;19932;-81
2023/06/02 06:46:14;;;;;;;;;;;;;;;17.54;51.69;98659.41;4849674;29;19944;-82
2023/06/02 06:48:41;;;;;;;;;;;;;;;17.60;51.36;98662.84;4850428;29;19927;-83
2023/06/02 06:51:08;;;;;;;;;;;;;;;17.60;51.98;98657.41;4879693;29;20071;-82
2023/06/02 06:53:35;;;;;;;;;;;;;;;17.70;52.03;98659.97;4879326;29;20034;-83
2023/06/02 06:56:03;;;;;;;;;;;;;;;17.84;51.94;98660.03;4879368;29;20042;-83
2023/06/02 06:58:30;;;;;;;;;;;;;;;17.91;51.29;98653.06;4877221;29;19928;-82
2023/06/02 07:00:59;;;;;;;;;;;;;;;17.94;50.83;98654.38;4878718;29;19968;-82
2023/06/02 07:03:26;;;;;;;;;;;;;;;18.06;50.75;98651.97;4877915;29;19928;-83
2023/06/02 07:05:53;;;;;;;;;;;;;;;18.14;50.43;98651.25;4877787;29;19970;-83
2023/06/02 07:08:26;;;;;;;;;;;;;;;18.19;50.11;98631.25;4877743;29;19980;-82
2023/06/02 07:11:03;;;;;;;;;;;;;;;18.51;49.99;98648.59;4877868;29;19934;-82
2023/06/02 07:13:30;;;;;;;;;;;;;;;18.68;49.51;98646.06;4878851;29;20038;-81
2023/06/02 07:15:57;;;;;;;;;;;;;;;18.82;49.31;98641.41;4877862;29;19974;-81
2023/06/02 07:18:24;;;;;;;;;;;;;;;18.95;48.87;98642.50;4878103;29;19928;-82
2023/06/02 07:20:51;;;;;;;;;;;;;;;19.14;47.81;98644.25;4879247;29;20450;-82
2023/06/02 07:23:18;;;;;;;;;;;;;;;19.18;47.47;98637.03;4878373;29;19934;-82
2023/06/02 07:25:45;;;;;;;;;;;;;;;19.20;46.63;98634.81;4878664;29;20391;-82
2023/06/02 07:28:12;;;;;;;;;;;;;;;19.26;46.96;98633.56;4878804;29;20348;-83
2023/06/02 07:30:53;;;;;;;;;;;;;;;19.33;46.30;98616.72;4876549;29;19971;-83
2023/06/02 07:33:35;;;;;;;;;;;;;;;19.43;46.65;98622.75;4876966;29;19939;-83
2023/06/02 07:36:02;;;;;;;;;;;;;;;19.54;46.05;98615.06;4878619;29;20037;-82
2023/06/02 07:38:34;;;;;;;;;;;;;;;19.64;45.39;98624.94;4878650;29;20460;-82
2023/06/02 07:41:02;;;;;;;;;;;;;;;19.63;44.34;98620.59;4878668;29;20030;-82
2023/06/02 07:43:29;;;;;;;;;;;;;;;19.65;43.41;98621.91;4862115;29;20102;-82
2023/06/02 07:45:56;;;;;;;;;;;;;;;19.80;42.90;98630.84;4878363;29;19928;-83
2023/06/02 07:48:23;;;;;;;;;;;;;;;19.80;42.43;98620.75;4878180;29;20011;-83
2023/06/02 07:50:50;;;;;;;;;;;;;;;20.04;42.35;98614.06;4874053;29;20000;-82
2023/06/02 07:53:17;;;;;;;;;;;;;;;20.05;42.22;98604.72;4883122;29;20352;-81
2023/06/02 07:55:45;;;;;;;;;;;;;;;20.19;42.62;98599.94;4870177;29;20284;-82
2023/06/02 07:58:12;;;;;;;;;;;;;;;20.53;42.62;98606.63;4868618;29;20426;-84
2023/06/02 08:00:39;;;;;;;;;;;;;;;20.75;42.10;98598.28;4870168;29;20622;-84
2023/06/02 08:03:07;;;;;;;;;;;;;;;20.84;41.63;98594.75;4866182;29;19935;-81
2023/06/02 08:05:35;;;;;;;;;;;;;;;21.12;41.46;98595.25;4876032;29;19987;-83
2023/06/02 08:08:08;;;;;;;;;;;;;;;21.30;41.63;98602.31;4873235;29;20515;-82
2023/06/02 08:10:35;;;;;;;;;;;;;;;21.23;41.74;98587.47;4873876;29;19928;-81
2023/06/02 08:13:03;;;;;;;;;;;;;;;21.20;42.16;98584.25;4861053;29;20031;-82
2023/06/02 08:15:31;;;;;;;;;;;;;;;21.56;41.89;98579.53;4866663;29;19928;-81
2023/06/02 08:17:59;;;;;;;;;;;;;;;21.97;41.51;98578.06;4872713;29;20383;-83
2023/06/02 08:20:29;;;;;;;;;;;;;;;22.03;40.85;98591.31;4874173;29;19931;-81
2023/06/02 08:22:56;;;;;;;;;;;;;;;22.04;40.69;98581.91;4874929;29;19977;-81
2023/06/02 08:25:23;;;;;;;;;;;;;;;22.01;40.34;98566.09;4867637;29;20018;-82
2023/06/02 08:27:51;;;;;;;;;;;;;;;22.00;40.56;98566.41;4859053;29;19928;-82
2023/06/02 08:30:20;;;;;;;;;;;;;;;22.15;40.60;98565.84;4858073;29;19939;-81
2023/06/02 08:32:50;;;;;;;;;;;;;;;22.59;40.36;98568.38;4859230;29;19989;-81
2023/06/02 08:35:18;;;;;;;;;;;;;;;22.98;39.62;98569.06;4858135;29;19934;-83
2023/06/02 08:37:45;;;;;;;;;;;;;;;23.39;39.40;98572.88;4859302;29;19928;-81
2023/06/02 08:40:15;;;;;;;;;;;;;;;23.32;38.69;98573.41;4873368;29;20026;-82
2023/06/02 08:42:42;;;;;;;;;;;;;;;23.22;38.86;98560.91;4856766;29;19981;-82
2023/06/02 08:45:11;;;;;;;;;;;;;;;23.63;38.59;98553.66;4873650;29;19932;-82
2023/06/02 08:47:39;;;;;;;;;;;;;;;24.00;38.34;98549.03;4858694;29;19935;-82
2023/06/02 08:50:07;;;;;;;;;;;;;;;24.35;38.00;98550.47;4875843;29;19931;-82
2023/06/02 08:52:35;;;;;;;;;;;;;;;24.46;37.76;98557.16;4846133;29;20450;-82
2023/06/02 08:55:03;;;;;;;;;;;;;;;24.39;37.31;98545.88;4876945;29;19931;-82
2023/06/02 08:57:30;;;;;;;;;;;;;;;24.60;37.62;98538.28;4876703;29;19928;-82
2023/06/02 09:00:00;;;;;;;;;;;;;;;24.92;36.58;98541.16;4861461;29;19928;-82
2023/06/02 09:02:27;;;;;;;;;;;;;;;25.51;35.82;98542.38;4877406;29;19934;-83
2023/06/02 09:04:54;;;;;;;;;;;;;;;25.87;34.95;98540.56;4876967;29;20322;-83
2023/06/02 09:07:22;;;;;;;;;;;;;;;26.00;34.55;98530.19;4876968;29;19967;-83
2023/06/02 09:09:51;;;;;;;;;;;;;;;25.87;34.17;98530.28;4876897;29;20242;-82
2023/06/02 09:12:19;;;;;;;;;;;;;;;26.16;33.79;98520.72;4877645;29;20440;-82
2023/06/02 09:14:47;;;;;;;;;;;;;;;26.44;33.47;98513.44;4875974;29;20102;-81
2023/06/02 09:17:28;;;;;;;;;;;;;;;26.39;33.88;98511.75;4877158;29;20025;-82
2023/06/02 09:19:56;;;;;;;;;;;;;;;26.52;33.34;98498.59;4877493;29;20379;-82
2023/06/02 09:22:27;;;;;;;;;;;;;;;26.98;32.67;98509.81;4875961;29;20011;-82
2023/06/02 09:24:54;;;;;;;;;;;;;;;27.10;32.29;98495.81;4876029;29;19928;-83
2023/06/02 09:27:21;;;;;;;;;;;;;;;26.79;32.28;98499.56;4876624;29;20026;-82
2023/06/02 09:29:48;;;;;;;;;;;;;;;25.85;32.98;98493.94;4877156;29;19928;-83
2023/06/02 09:32:18;;;;;;;;;;;;;;;26.21;31.97;98497.53;4876498;29;19935;-82
2023/06/02 09:34:45;;;;;;;;;;;;;;;26.89;30.35;98484.31;4877318;29;20388;-82
2023/06/02 09:37:14;;;;;;;;;;;;;;;27.11;29.83;98496.63;4872294;29;19983;-82
2023/06/02 09:39:46;;;;;;;;;;;;;;;26.99;29.86;98484.53;4869578;29;19971;-82
2023/06/02 09:42:13;;;;;;;;;;;;;;;26.70;30.14;98482.38;4876946;29;19928;-82
2023/06/02 09:44:40;;;;;;;;;;;;;;;27.36;29.79;98483.25;4877147;29;19934;-82
2023/06/02 09:47:20;;;;;;;;;;;;;;;27.92;28.83;98479.03;4877580;29;19950;-81
2023/06/02 09:49:52;;;;;;;;;;;;;;;28.35;27.65;98482.44;4876661;29;19931;-82
2023/06/02 09:52:19;;;;;;;;;;;;;;;28.31;26.77;98487.94;4876038;29;20034;-82
2023/06/02 09:54:47;;;;;;;;;;;;;;;28.69;27.22;98472.19;4877325;29;20066;-83
2023/06/02 09:57:15;;;;;;;;;;;;;;;28.92;27.07;98478.41;4859270;29;19928;-83
2023/06/02 09:59:43;;;;;;;;;;;;;;;28.91;26.67;98467.66;4875499;29;19928;-82
2023/06/02 10:02:10;;;;;;;;;;;;;;;29.57;26.43;98456.81;4871318;29;20054;-83
2023/06/02 10:04:37;;;;;;;;;;;;;;;29.30;26.08;98462.56;4868931;29;20461;-83
2023/06/02 10:07:13;;;;;;;;;;;;;;;29.31;25.64;98464.13;4850338;29;20353;-82
2023/06/02 10:09:58;;;;;;;;;;;;;;;29.48;25.22;98434.13;4869173;29;19928;-82
2023/06/02 10:12:25;;;;;;;;;;;;;;;29.93;25.25;98451.53;4531821;29;10000298;-81
2023/06/02 10:15:10;;;;;;;;;;;;;;;29.99;24.81;98445.25;4876752;29;19928;-83
2023/06/02 10:17:46;;;;;;;;;;;;;;;29.85;24.95;98441.56;4878025;29;19935;-81
2023/06/02 10:20:46;;;;;;;;;;;;;;;27.93;26.06;98444.59;4861988;29;19928;-82
2023/06/02 10:23:47;;;;;;;;;;;;;;;28.94;25.03;98431.63;4821827;29;19973;-82
2023/06/02 10:26:24;;;;;;;;;;;;;;;29.01;25.00;98424.53;4795149;29;19935;-83
2023/06/02 10:28:52;;;;;;;;;;;;;;;27.97;26.00;98437.91;4838042;29;19939;-84
2023/06/02 10:31:22;;;;;;;;;;;;;;;26.53;27.54;98418.00;4817480;29;19936;-82
2023/06/02 10:33:49;;;;;;;;;;;;;;;26.16;28.30;98421.19;4822953;29;20339;-82
2023/06/02 10:36:19;;;;;;;;;;;;;;;25.53;29.03;98426.81;4823666;29;20482;-82
2023/06/02 10:38:47;;;;;;;;;;;;;;;26.82;27.82;98435.19;4838577;29;19938;-83
2023/06/02 10:41:16;;;;;;;;;;;;;;;28.62;26.03;98447.91;4831191;29;19939;-81
2023/06/02 10:44:18;;;;;;;;;;;;;;;29.33;24.96;98427.66;4832674;29;20040;-84
2023/06/02 10:46:45;;;;;;;;;;;;;;;30.07;23.45;98384.09;4773361;30;19929;-83
2023/06/02 10:49:31;;;;;;;;;;;;;;;29.70;23.26;98410.91;4764412;30;19960;-82
2023/06/02 10:52:15;;;;;;;;;;;;;;;30.66;23.37;98410.59;4733164;30;20028;-82
2023/06/02 10:54:42;;;;;;;;;;;;;;;31.55;21.57;98399.97;4766777;30;20057;-83
2023/06/02 10:57:11;;;;;;;;;;;;;;;28.86;23.73;98370.81;4768569;30;20194;-83
2023/06/02 10:59:39;;;;;;;;;;;;;;;28.04;25.10;98403.94;4761526;29;19929;-83
2023/06/02 11:02:06;;;;;;;;;;;;;;;28.46;24.52;98397.38;4804011;29;19929;-82
2023/06/02 11:04:34;;;;;;;;;;;;;;;29.55;23.79;98398.84;4787683;29;19929;-83
2023/06/02 11:07:21;;;;;;;;;;;;;;;30.59;23.13;98390.28;4802839;29;19932;-83
2023/06/02 11:09:50;;;;;;;;;;;;;;;29.49;23.35;98386.47;4803937;29;19929;-85
2023/06/02 11:12:20;;;;;;;;;;;;;;;30.09;22.26;98378.94;4804046;29;19978;-83
2023/06/02 11:15:04;;;;;;;;;;;;;;;28.41;23.71;98392.13;4788570;29;19952;-83
2023/06/02 11:17:33;;;;;;;;;;;;;;;28.31;23.45;98366.66;4802447;29;19987;-84
2023/06/02 11:20:37;;;;;;;;;;;;;;;27.66;24.30;98378.03;4840036;29;19934;-84
2023/06/02 11:23:05;;;;;;;;;;;;;;;29.32;23.54;98399.06;4883273;29;19957;-82
2023/06/02 11:25:37;;;;;;;;;;;;;;;28.29;24.05;98387.63;4870966;29;19968;-84
2023/06/02 11:28:04;;;;;;;;;;;;;;;27.86;24.42;98382.31;4841883;29;19927;-83
2023/06/02 11:30:31;;;;;;;;;;;;;;;28.93;23.95;98385.56;4861986;29;20327;-83
2023/06/02 11:32:58;;;;;;;;;;;;;;;28.98;23.17;98378.09;4861206;29;20026;-84
2023/06/02 11:35:27;;;;;;;;;;;;;;;29.04;22.87;98357.91;4860460;29;19927;-83
2023/06/02 11:38:04;;;;;;;;;;;;;;;30.28;22.31;98370.28;4858798;29;19928;-83
2023/06/02 11:40:33;;;;;;;;;;;;;;;30.64;22.15;98376.78;4862686;29;19928;-83
2023/06/02 11:43:00;;;;;;;;;;;;;;;30.27;22.19;98368.69;4868336;29;19970;-84
2023/06/02 11:45:27;;;;;;;;;;;;;;;30.57;22.10;98360.03;4860284;29;19932;-84
2023/06/02 11:47:55;;;;;;;;;;;;;;;29.48;23.67;98356.31;4860465;29;19928;-83
2023/06/02 11:50:22;;;;;;;;;;;;;;;28.04;25.46;98360.38;4875197;29;19984;-84
2023/06/02 11:52:49;;;;;;;;;;;;;;;27.82;25.66;98348.19;4874328;29;20329;-84
2023/06/02 11:55:16;;;;;;;;;;;;;;;26.48;26.88;98371.22;4868296;29;19970;-84
2023/06/02 11:57:43;;;;;;;;;;;;;;;25.94;27.74;98361.06;4871096;29;19928;-86
2023/06/02 12:00:19;;;;;;;;;;;;;;;25.91;27.52;98362.59;4862146;29;20617;-86
2023/06/02 12:02:51;;;;;;;;;;;;;;;25.22;28.09;98364.94;4874300;29;19928;-87
2023/06/02 12:05:37;;;;;;;;;;;;;;;24.89;28.99;98321.09;4859248;29;19928;-87
2023/06/02 12:08:30;;;;;;;;;;;;;;;24.64;29.39;98370.91;4852822;29;20027;-87
2023/06/02 12:10:57;;;;;;;;;;;;;;;23.89;31.76;98385.28;4859799;29;19928;-87
2023/06/02 12:13:27;;;;;;;;;;;;;;;23.66;32.53;98384.94;4860404;29;19928;-87
2023/06/02 12:15:55;;;;;;;;;;;;;;;23.71;32.88;98359.94;4858762;29;19927;-87
2023/06/02 12:18:31;;;;;;;;;;;;;;;24.35;32.21;98343.66;4869848;29;19927;-88
2023/06/02 12:20:59;;;;;;;;;;;;;;;26.20;30.26;98332.75;4860072;29;19928;-86
2023/06/02 12:23:43;;;;;;;;;;;;;;;27.52;27.84;98342.59;4860226;29;19963;-86
2023/06/02 12:26:11;;;;;;;;;;;;;;;27.15;28.14;98325.78;4859716;29;20349;-90
2023/06/02 12:28:38;;;;;;;;;;;;;;;27.93;27.10;98342.00;4859354;29;19928;-91
2023/06/02 12:31:05;;;;;;;;;;;;;;;29.62;25.23;98313.88;4866575;29;19928;-92
2023/06/02 12:33:33;;;;;;;;;;;;;;;30.12;24.31;98322.50;4858700;29;19928;-92
2023/06/02 12:36:00;;;;;;;;;;;;;;;30.62;23.70;98290.06;4860700;29;19927;-89
2023/06/02 12:38:27;;;;;;;;;;;;;;;31.32;23.21;98328.66;4899518;29;20025;-92
2023/06/02 12:40:54;;;;;;;;;;;;;;;31.22;22.52;98321.94;4890580;29;19927;-84
2023/06/02 12:43:35;;;;;;;;;;;;;;;30.57;23.17;98346.13;4529267;29;10000072;-89
2023/06/02 12:46:03;;;;;;;;;;;;;;;30.29;23.77;98351.63;4838809;29;19939;-87
2023/06/02 12:48:30;;;;;;;;;;;;;;;29.45;24.92;98329.25;4869234;29;19972;-88
2023/06/02 12:50:57;;;;;;;;;;;;;;;29.24;25.55;98325.16;4868464;29;20022;-87
2023/06/02 12:53:24;;;;;;;;;;;;;;;29.70;25.00;98329.44;4873916;29;20346;-87
2023/06/02 12:55:51;;;;;;;;;;;;;;;28.28;26.77;98325.00;4872954;29;20034;-87
2023/06/02 12:58:18;;;;;;;;;;;;;;;27.54;27.88;98333.91;4865220;29;19928;-87
2023/06/02 13:00:50;;;;;;;;;;;;;;;26.76;28.75;98325.91;4858399;29;19939;-88